sensor_id;sensor_type;location;lat;lon;timestamp;pressure;altitude;pressure_sealevel;temperature;humidity
34506;BME280;20748;42.632;23.198;2023-11-21T00:00:11;91809.31;;;2.70;100.00
34506;BME280;20748;42.632;23.198;2023-11-21T00:02:46;91808.03;;;2.73;100.00
34506;BME280;20748;42.632;23.198;2023-11-21T00:05:20;91798.22;;;2.59;100.00
34506;BME280;20748;42.632;23.198;2023-11-21T00:07:55;91802.09;;;2.62;100.00
34506;BME280;20748;42.632;23.198;2023-11-21T00:10:29;91803.91;;;2.66;100.00
34506;BME280;20748;42.632;23.198;2023-11-21T00:13:04;91795.91;;;2.63;99.42
34506;BME280;20748;42.632;23.198;2023-11-21T00:15:38;91800.56;;;2.71;99.17
34506;BME280;20748;42.632;23.198;2023-11-21T00:18:12;91795.91;;;2.68;99.31
34506;BME280;20748;42.632;23.198;2023-11-21T00:20:46;91803.66;;;2.68;99.56
34506;BME280;20748;42.632;23.198;2023-11-21T00:23:20;91810.59;;;2.67;100.00
34506;BME280;20748;42.632;23.198;2023-11-21T00:25:54;91816.78;;;2.66;99.89
34506;BME280;20748;42.632;23.198;2023-11-21T00:28:29;91798.75;;;2.66;100.00
34506;BME280;20748;42.632;23.198;2023-11-21T00:31:04;91795.91;;;2.63;100.00
34506;BME280;20748;42.632;23.198;2023-11-21T00:33:37;91797.44;;;2.59;100.00
34506;BME280;20748;42.632;23.198;2023-11-21T00:36:11;91809.28;;;2.65;100.00
34506;BME280;20748;42.632;23.198;2023-11-21T00:38:45;91806.72;;;2.65;100.00
34506;BME280;20748;42.632;23.198;2023-11-21T00:41:20;91809.31;;;2.70;100.00
34506;BME280;20748;42.632;23.198;2023-11-21T00:43:55;91812.91;;;2.69;99.79
34506;BME280;20748;42.632;23.198;2023-11-21T00:46:29;91810.34;;;2.69;99.49
34506;BME280;20748;42.632;23.198;2023-11-21T00:49:03;91808.00;;;2.62;100.00
34506;BME280;20748;42.632;23.198;2023-11-21T00:51:37;91804.88;;;2.55;100.00
34506;BME280;20748;42.632;23.198;2023-11-21T00:54:11;91810.03;;;2.55;100.00
34506;BME280;20748;42.632;23.198;2023-11-21T00:56:45;91799.72;;;2.50;100.00
34506;BME280;20748;42.632;23.198;2023-11-21T00:59:21;91800.00;;;2.59;100.00
34506;BME280;20748;42.632;23.198;2023-11-21T01:01:56;91795.13;;;2.62;100.00
34506;BME280;20748;42.632;23.198;2023-11-21T01:04:33;91795.13;;;2.62;100.00
34506;BME280;20748;42.632;23.198;2023-11-21T01:07:07;91793.56;;;2.61;100.00
34506;BME280;20748;42.632;23.198;2023-11-21T01:09:41;91786.84;;;2.55;100.00
34506;BME280;20748;42.632;23.198;2023-11-21T01:12:16;91783.28;;;2.61;100.00
34506;BME280;20748;42.632;23.198;2023-11-21T01:14:52;91790.19;;;2.50;100.00
34506;BME280;20748;42.632;23.198;2023-11-21T01:17:26;91785.81;;;2.56;100.00
34506;BME280;20748;42.632;23.198;2023-11-21T01:20:02;91791.75;;;2.51;100.00
34506;BME280;20748;42.632;23.198;2023-11-21T01:22:39;91794.81;;;2.43;100.00
34506;BME280;20748;42.632;23.198;2023-11-21T01:25:13;91789.13;;;2.41;100.00
34506;BME280;20748;42.632;23.198;2023-11-21T01:27:47;91796.34;;;2.39;100.00
34506;BME280;20748;42.632;23.198;2023-11-21T01:30:22;91798.66;;;2.40;100.00
34506;BME280;20748;42.632;23.198;2023-11-21T01:32:58;91789.13;;;2.41;100.00
34506;BME280;20748;42.632;23.198;2023-11-21T01:35:31;91781.91;;;2.38;100.00
34506;BME280;20748;42.632;23.198;2023-11-21T01:38:06;91787.06;;;2.38;100.00
34506;BME280;20748;42.632;23.198;2023-11-21T01:40:40;91790.91;;;2.35;100.00
34506;BME280;20748;42.632;23.198;2023-11-21T01:43:14;91787.56;;;2.35;99.96
34506;BME280;20748;42.632;23.198;2023-11-21T01:45:50;91786.50;;;2.25;100.00
34506;BME280;20748;42.632;23.198;2023-11-21T01:48:24;91768.41;;;2.10;100.00
34506;BME280;20748;42.632;23.198;2023-11-21T01:50:58;91770.50;;;2.18;100.00
34506;BME280;20748;42.632;23.198;2023-11-21T01:53:32;91759.44;;;2.18;100.00
34506;BME280;20748;42.632;23.198;2023-11-21T01:56:07;91770.00;;;2.16;100.00
34506;BME280;20748;42.632;23.198;2023-11-21T01:58:42;91767.66;;;2.14;100.00
34506;BME280;20748;42.632;23.198;2023-11-21T02:01:18;91773.34;;;2.17;100.00
34506;BME280;20748;42.632;23.198;2023-11-21T02:03:52;91773.06;;;2.13;100.00
34506;BME280;20748;42.632;23.198;2023-11-21T02:06:25;91773.56;;;2.10;100.00
34506;BME280;20748;42.632;23.198;2023-11-21T02:08:59;91766.34;;;2.12;100.00
34506;BME280;20748;42.632;23.198;2023-11-21T02:11:33;91774.34;;;2.15;100.00
34506;BME280;20748;42.632;23.198;2023-11-21T02:14:07;91767.16;;;2.18;100.00
34506;BME280;20748;42.632;23.198;2023-11-21T02:16:43;91760.50;;;2.22;100.00
34506;BME280;20748;42.632;23.198;2023-11-21T02:19:21;91755.78;;;2.03;100.00
34506;BME280;20748;42.632;23.198;2023-11-21T02:21:59;91767.16;;;2.12;100.00
34506;BME280;20748;42.632;23.198;2023-11-21T02:24:37;91767.66;;;2.14;100.00
34506;BME280;20748;42.632;23.198;2023-11-21T02:27:11;91771.22;;;2.08;100.00
34506;BME280;20748;42.632;23.198;2023-11-21T02:29:44;91756.06;;;2.12;100.00
34506;BME280;20748;42.632;23.198;2023-11-21T02:32:18;91755.28;;;2.06;100.00
34506;BME280;20748;42.632;23.198;2023-11-21T02:34:55;91749.88;;;2.08;100.00
34506;BME280;20748;42.632;23.198;2023-11-21T02:37:33;91764.03;;;2.05;100.00
34506;BME280;20748;42.632;23.198;2023-11-21T02:40:10;91762.50;;;2.04;100.00
34506;BME280;20748;42.632;23.198;2023-11-21T02:42:45;91749.09;;;2.07;100.00
34506;BME280;20748;42.632;23.198;2023-11-21T02:45:20;91759.19;;;2.14;100.00
34506;BME280;20748;42.632;23.198;2023-11-21T02:47:56;91758.13;;;2.10;100.00
34506;BME280;20748;42.632;23.198;2023-11-21T02:50:31;91764.53;;;2.07;100.00
34506;BME280;20748;42.632;23.198;2023-11-21T02:53:05;91762.78;;;2.13;100.00
34506;BME280;20748;42.632;23.198;2023-11-21T02:55:40;91759.16;;;2.09;100.00
34506;BME280;20748;42.632;23.198;2023-11-21T02:58:14;91759.16;;;2.09;100.00
34506;BME280;20748;42.632;23.198;2023-11-21T03:00:48;91759.13;;;2.04;100.00
34506;BME280;20748;42.632;23.198;2023-11-21T03:03:22;91750.59;;;1.98;100.00
34506;BME280;20748;42.632;23.198;2023-11-21T03:05:57;91743.16;;;2.07;100.00
34506;BME280;20748;42.632;23.198;2023-11-21T03:08:31;91743.91;;;1.97;100.00
34506;BME280;20748;42.632;23.198;2023-11-21T03:11:06;91748.53;;;1.95;100.00
34506;BME280;20748;42.632;23.198;2023-11-21T03:13:40;91752.19;;;2.04;100.00
34506;BME280;20748;42.632;23.198;2023-11-21T03:16:15;91753.19;;;2.03;100.00
34506;BME280;20748;42.632;23.198;2023-11-21T03:18:49;91765.56;;;2.01;100.00
34506;BME280;20748;42.632;23.198;2023-11-21T03:21:25;91768.34;;;1.94;100.00
34506;BME280;20748;42.632;23.198;2023-11-21T03:23:59;91766.03;;;1.98;100.00
34506;BME280;20748;42.632;23.198;2023-11-21T03:26:34;91780.75;;;2.03;100.00
34506;BME280;20748;42.632;23.198;2023-11-21T03:29:10;91771.19;;;1.98;100.00
34506;BME280;20748;42.632;23.198;2023-11-21T03:31:44;91764.03;;;2.05;100.00
34506;BME280;20748;42.632;23.198;2023-11-21T03:34:23;91773.53;;;2.05;100.00
34506;BME280;20748;42.632;23.198;2023-11-21T03:36:59;91769.72;;;2.12;100.00
34506;BME280;20748;42.632;23.198;2023-11-21T03:39:33;91770.22;;;2.09;100.00
34506;BME280;20748;42.632;23.198;2023-11-21T03:42:09;91753.75;;;2.05;100.00
34506;BME280;20748;42.632;23.198;2023-11-21T03:44:43;91756.56;;;2.09;100.00
34506;BME280;20748;42.632;23.198;2023-11-21T03:47:16;91741.66;;;2.11;100.00
34506;BME280;20748;42.632;23.198;2023-11-21T03:49:51;91751.72;;;2.18;100.00
34506;BME280;20748;42.632;23.198;2023-11-21T03:52:25;91742.72;;;2.20;100.00
34506;BME280;20748;42.632;23.198;2023-11-21T03:55:01;91743.00;;;2.24;100.00
34506;BME280;20748;42.632;23.198;2023-11-21T03:57:36;91736.03;;;2.19;100.00
34506;BME280;20748;42.632;23.198;2023-11-21T04:00:11;91723.94;;;2.25;100.00
34506;BME280;20748;42.632;23.198;2023-11-21T04:02:45;91728.06;;;2.26;100.00
34506;BME280;20748;42.632;23.198;2023-11-21T04:05:20;91715.94;;;2.16;100.00
34506;BME280;20748;42.632;23.198;2023-11-21T04:07:54;91722.94;;;2.31;100.00
34506;BME280;20748;42.632;23.198;2023-11-21T04:10:28;91728.88;;;2.32;100.00
34506;BME280;20748;42.632;23.198;2023-11-21T04:13:03;91729.63;;;2.32;100.00
34506;BME280;20748;42.632;23.198;2023-11-21T04:15:37;91725.25;;;2.33;100.00
34506;BME280;20748;42.632;23.198;2023-11-21T04:18:11;91727.31;;;2.31;100.00
34506;BME280;20748;42.632;23.198;2023-11-21T04:20:45;91726.53;;;2.30;100.00
34506;BME280;20748;42.632;23.198;2023-11-21T04:23:19;91729.59;;;2.27;100.00
34506;BME280;20748;42.632;23.198;2023-11-21T04:25:52;91737.34;;;2.32;100.00
34506;BME280;20748;42.632;23.198;2023-11-21T04:28:30;91732.19;;;2.32;100.00
34506;BME280;20748;42.632;23.198;2023-11-21T04:31:04;91736.06;;;2.35;100.00
34506;BME280;20748;42.632;23.198;2023-11-21T04:33:39;91739.16;;;2.32;100.00
34506;BME280;20748;42.632;23.198;2023-11-21T04:36:13;91736.31;;;2.33;100.00
34506;BME280;20748;42.632;23.198;2023-11-21T04:38:47;91730.38;;;2.27;100.00
34506;BME280;20748;42.632;23.198;2023-11-21T04:41:20;91730.63;;;2.26;100.00
34506;BME280;20748;42.632;23.198;2023-11-21T04:43:56;91724.72;;;2.25;100.00
34506;BME280;20748;42.632;23.198;2023-11-21T04:46:30;91727.53;;;2.24;100.00
34506;BME280;20748;42.632;23.198;2023-11-21T04:49:04;91731.41;;;2.21;100.00
34506;BME280;20748;42.632;23.198;2023-11-21T04:51:38;91728.56;;;2.23;100.00
34506;BME280;20748;42.632;23.198;2023-11-21T04:54:12;91732.44;;;2.20;100.00
34506;BME280;20748;42.632;23.198;2023-11-21T04:56:46;91730.06;;;2.08;100.00
34506;BME280;20748;42.632;23.198;2023-11-21T04:59:21;91740.38;;;2.13;100.00
34506;BME280;20748;42.632;23.198;2023-11-21T05:01:57;91742.41;;;2.06;100.00
34506;BME280;20748;42.632;23.198;2023-11-21T05:04:33;91735.22;;;2.13;100.00
34506;BME280;20748;42.632;23.198;2023-11-21T05:07:07;91729.06;;;2.14;100.00
34506;BME280;20748;42.632;23.198;2023-11-21T05:09:41;91725.97;;;2.18;100.00
34506;BME280;20748;42.632;23.198;2023-11-21T05:12:18;91730.59;;;2.10;100.00
34506;BME280;20748;42.632;23.198;2023-11-21T05:14:53;91732.38;;;2.10;100.00
34506;BME280;20748;42.632;23.198;2023-11-21T05:17:27;91730.31;;;2.07;100.00
34506;BME280;20748;42.632;23.198;2023-11-21T05:20:01;91730.03;;;2.03;100.00
34506;BME280;20748;42.632;23.198;2023-11-21T05:22:36;91732.38;;;2.05;100.00
34506;BME280;20748;42.632;23.198;2023-11-21T05:25:11;91746.25;;;2.04;100.00
34506;BME280;20748;42.632;23.198;2023-11-21T05:27:45;91754.72;;;1.94;100.00
34506;BME280;20748;42.632;23.198;2023-11-21T05:30:21;91753.97;;;2.04;100.00
34506;BME280;20748;42.632;23.198;2023-11-21T05:32:55;91747.78;;;1.99;100.00
34506;BME280;20748;42.632;23.198;2023-11-21T05:35:29;91755.78;;;2.03;100.00
34506;BME280;20748;42.632;23.198;2023-11-21T05:38:03;91757.31;;;1.99;100.00
34506;BME280;20748;42.632;23.198;2023-11-21T05:40:37;91755.25;;;2.01;100.00
34506;BME280;20748;42.632;23.198;2023-11-21T05:43:11;91751.63;;;1.97;100.00
34506;BME280;20748;42.632;23.198;2023-11-21T05:45:46;91753.94;;;1.93;100.00
34506;BME280;20748;42.632;23.198;2023-11-21T05:48:20;91746.00;;;2.00;100.00
34506;BME280;20748;42.632;23.198;2023-11-21T05:50:54;91749.34;;;2.06;100.00
34506;BME280;20748;42.632;23.198;2023-11-21T05:53:27;91748.59;;;2.05;100.00
34506;BME280;20748;42.632;23.198;2023-11-21T05:56:01;91746.28;;;2.09;100.00
34506;BME280;20748;42.632;23.198;2023-11-21T05:58:36;91743.97;;;2.12;100.00
34506;BME280;20748;42.632;23.198;2023-11-21T06:01:11;91739.06;;;2.11;100.00
34506;BME280;20748;42.632;23.198;2023-11-21T06:03:45;91740.09;;;2.10;100.00
34506;BME280;20748;42.632;23.198;2023-11-21T06:06:19;91742.94;;;2.13;100.00
34506;BME280;20748;42.632;23.198;2023-11-21T06:08:54;91740.63;;;2.17;100.00
34506;BME280;20748;42.632;23.198;2023-11-21T06:11:28;91742.19;;;2.18;100.00
34506;BME280;20748;42.632;23.198;2023-11-21T06:14:03;91745.31;;;2.20;100.00
34506;BME280;20748;42.632;23.198;2023-11-21T06:16:41;91750.19;;;2.27;100.00
34506;BME280;20748;42.632;23.198;2023-11-21T06:19:18;91752.53;;;2.28;100.00
34506;BME280;20748;42.632;23.198;2023-11-21T06:21:51;91754.88;;;2.35;100.00
34506;BME280;20748;42.632;23.198;2023-11-21T06:24:25;91748.66;;;2.31;100.00
34506;BME280;20748;42.632;23.198;2023-11-21T06:26:59;91755.38;;;2.32;100.00
34506;BME280;20748;42.632;23.198;2023-11-21T06:29:34;91746.38;;;2.35;100.00
34506;BME280;20748;42.632;23.198;2023-11-21T06:32:09;91754.63;;;2.37;100.00
34506;BME280;20748;42.632;23.198;2023-11-21T06:34:42;91760.56;;;2.42;100.00
34506;BME280;20748;42.632;23.198;2023-11-21T06:37:16;91761.84;;;2.45;100.00
34506;BME280;20748;42.632;23.198;2023-11-21T06:39:50;91766.00;;;2.51;100.00
34506;BME280;20748;42.632;23.198;2023-11-21T06:42:24;91765.50;;;2.54;100.00
34506;BME280;20748;42.632;23.198;2023-11-21T06:45:05;91771.16;;;2.57;100.00
34506;BME280;20748;42.632;23.198;2023-11-21T06:47:41;91770.91;;;2.58;100.00
34506;BME280;20748;42.632;23.198;2023-11-21T06:50:16;91777.09;;;2.67;100.00
34506;BME280;20748;42.632;23.198;2023-11-21T06:52:49;91779.44;;;2.74;100.00
34506;BME280;20748;42.632;23.198;2023-11-21T06:55:23;91770.94;;;2.79;100.00
34506;BME280;20748;42.632;23.198;2023-11-21T06:57:58;91777.41;;;2.87;100.00
34506;BME280;20748;42.632;23.198;2023-11-21T07:00:33;91781.53;;;2.98;100.00
34506;BME280;20748;42.632;23.198;2023-11-21T07:03:08;91767.38;;;3.06;100.00
34506;BME280;20748;42.632;23.198;2023-11-21T07:05:42;91772.03;;;3.19;100.00
34506;BME280;20748;42.632;23.198;2023-11-21T07:08:15;91774.59;;;3.25;100.00
34506;BME280;20748;42.632;23.198;2023-11-21T07:10:50;91765.84;;;3.31;100.00
34506;BME280;20748;42.632;23.198;2023-11-21T07:13:24;91763.00;;;3.38;100.00
34506;BME280;20748;42.632;23.198;2023-11-21T07:15:59;91767.38;;;3.53;100.00
34506;BME280;20748;42.632;23.198;2023-11-21T07:18:34;91767.88;;;3.55;100.00
34506;BME280;20748;42.632;23.198;2023-11-21T07:21:08;91775.09;;;3.63;100.00
34506;BME280;20748;42.632;23.198;2023-11-21T07:23:44;91772.25;;;3.70;100.00
34506;BME280;20748;42.632;23.198;2023-11-21T07:26:18;91769.66;;;3.80;100.00
34506;BME280;20748;42.632;23.198;2023-11-21T07:28:51;91775.06;;;3.84;100.00
34506;BME280;20748;42.632;23.198;2023-11-21T07:31:25;91771.19;;;3.92;100.00
34506;BME280;20748;42.632;23.198;2023-11-21T07:34:00;91771.16;;;4.02;100.00
34506;BME280;20748;42.632;23.198;2023-11-21T07:36:34;91771.66;;;4.04;100.00
34506;BME280;20748;42.632;23.198;2023-11-21T07:39:08;91778.59;;;4.19;100.00
34506;BME280;20748;42.632;23.198;2023-11-21T07:41:42;91773.41;;;4.29;100.00
34506;BME280;20748;42.632;23.198;2023-11-21T07:44:21;91774.63;;;4.42;100.00
34506;BME280;20748;42.632;23.198;2023-11-21T07:46:55;91774.06;;;4.56;100.00
34506;BME280;20748;42.632;23.198;2023-11-21T07:49:31;91772.44;;;4.70;100.00
34506;BME280;20748;42.632;23.198;2023-11-21T07:52:05;91761.00;;;4.82;100.00
34506;BME280;20748;42.632;23.198;2023-11-21T07:54:38;91760.69;;;4.94;100.00
34506;BME280;20748;42.632;23.198;2023-11-21T07:57:13;91760.38;;;5.01;100.00
34506;BME280;20748;42.632;23.198;2023-11-21T07:59:46;91754.34;;;5.10;100.00
34506;BME280;20748;42.632;23.198;2023-11-21T08:02:20;91753.22;;;5.22;100.00
34506;BME280;20748;42.632;23.198;2023-11-21T08:04:55;91752.13;;;5.33;98.87
34506;BME280;20748;42.632;23.198;2023-11-21T08:07:30;91752.53;;;5.46;96.86
34506;BME280;20748;42.632;23.198;2023-11-21T08:10:04;91756.09;;;5.55;96.56
34506;BME280;20748;42.632;23.198;2023-11-21T08:12:39;91752.38;;;5.67;95.76
34506;BME280;20748;42.632;23.198;2023-11-21T08:15:15;91750.97;;;5.80;95.46
34506;BME280;20748;42.632;23.198;2023-11-21T08:17:49;91766.16;;;5.86;91.61
34506;BME280;20748;42.632;23.198;2023-11-21T08:20:24;91755.75;;;5.91;91.67
34506;BME280;20748;42.632;23.198;2023-11-21T08:22:58;91753.06;;;6.02;90.37
34506;BME280;20748;42.632;23.198;2023-11-21T08:25:32;91761.16;;;5.95;88.10
34506;BME280;20748;42.632;23.198;2023-11-21T08:28:07;91758.00;;;6.03;88.83
34506;BME280;20748;42.632;23.198;2023-11-21T08:30:41;91754.34;;;6.04;89.41
34506;BME280;20748;42.632;23.198;2023-11-21T08:33:15;91749.81;;;6.15;90.10
34506;BME280;20748;42.632;23.198;2023-11-21T08:35:50;91745.88;;;6.23;88.84
34506;BME280;20748;42.632;23.198;2023-11-21T08:38:24;91745.81;;;6.28;88.89
34506;BME280;20748;42.632;23.198;2023-11-21T08:40:58;91742.38;;;6.33;89.23
34506;BME280;20748;42.632;23.198;2023-11-21T08:43:34;91742.06;;;6.40;90.10
34506;BME280;20748;42.632;23.198;2023-11-21T08:46:07;91737.50;;;6.51;90.09
34506;BME280;20748;42.632;23.198;2023-11-21T08:48:41;91733.94;;;6.66;88.82
34506;BME280;20748;42.632;23.198;2023-11-21T08:51:17;91731.22;;;6.76;88.71
34506;BME280;20748;42.632;23.198;2023-11-21T08:53:51;91728.91;;;6.94;88.35
34506;BME280;20748;42.632;23.198;2023-11-21T08:56:25;91715.28;;;7.02;87.99
34506;BME280;20748;42.632;23.198;2023-11-21T08:58:59;91713.25;;;7.18;86.57
34506;BME280;20748;42.632;23.198;2023-11-21T09:01:34;91703.31;;;7.39;86.88
34506;BME280;20748;42.632;23.198;2023-11-21T09:04:08;91694.00;;;7.52;85.67
34506;BME280;20748;42.632;23.198;2023-11-21T09:06:43;91692.59;;;7.74;85.63
34506;BME280;20748;42.632;23.198;2023-11-21T09:09:17;91684.41;;;7.67;85.65
34506;BME280;20748;42.632;23.198;2023-11-21T09:11:52;91682.59;;;7.82;85.87
34506;BME280;20748;42.632;23.198;2023-11-21T09:14:25;91679.63;;;7.88;84.19
34506;BME280;20748;42.632;23.198;2023-11-21T09:16:59;91669.09;;;7.51;85.04
34506;BME280;20748;42.632;23.198;2023-11-21T09:19:33;91663.34;;;7.55;85.39
34506;BME280;20748;42.632;23.198;2023-11-21T09:22:08;91660.94;;;7.58;84.33
34506;BME280;20748;42.632;23.198;2023-11-21T09:24:42;91658.34;;;7.58;83.74
34506;BME280;20748;42.632;23.198;2023-11-21T09:27:16;91649.97;;;7.75;83.44
34506;BME280;20748;42.632;23.198;2023-11-21T09:29:50;91634.59;;;7.79;83.81
34506;BME280;20748;42.632;23.198;2023-11-21T09:32:25;91634.75;;;7.97;82.50
34506;BME280;20748;42.632;23.198;2023-11-21T09:34:59;91631.09;;;8.12;81.73
34506;BME280;20748;42.632;23.198;2023-11-21T09:37:36;91625.69;;;8.22;82.70
34506;BME280;20748;42.632;23.198;2023-11-21T09:40:11;91620.97;;;8.24;81.25
34506;BME280;20748;42.632;23.198;2023-11-21T09:42:54;91614.38;;;8.55;80.74
34506;BME280;20748;42.632;23.198;2023-11-21T09:45:32;91607.28;;;8.32;80.10
34506;BME280;20748;42.632;23.198;2023-11-21T09:48:10;91600.25;;;8.33;79.71
34506;BME280;20748;42.632;23.198;2023-11-21T09:50:46;91600.03;;;8.43;79.82
34506;BME280;20748;42.632;23.198;2023-11-21T09:53:27;91596.91;;;8.32;77.38
34506;BME280;20748;42.632;23.198;2023-11-21T09:56:02;91592.31;;;8.52;77.69
34506;BME280;20748;42.632;23.198;2023-11-21T09:58:37;91587.53;;;8.68;74.68
34506;BME280;20748;42.632;23.198;2023-11-21T10:01:13;91594.09;;;8.89;75.92
34506;BME280;20748;42.632;23.198;2023-11-21T10:03:48;91585.34;;;9.07;74.35
34506;BME280;20748;42.632;23.198;2023-11-21T10:06:24;91588.91;;;9.52;68.55
34506;BME280;20748;42.632;23.198;2023-11-21T10:09:01;91582.09;;;9.83;67.19
34506;BME280;20748;42.632;23.198;2023-11-21T10:11:36;91583.25;;;10.08;66.05
34506;BME280;20748;42.632;23.198;2023-11-21T10:14:11;91573.72;;;10.21;63.45
34506;BME280;20748;42.632;23.198;2023-11-21T10:16:47;91575.25;;;10.31;62.01
34506;BME280;20748;42.632;23.198;2023-11-21T10:19:23;91571.28;;;10.25;61.68
34506;BME280;20748;42.632;23.198;2023-11-21T10:21:57;91574.50;;;10.30;61.33
34506;BME280;20748;42.632;23.198;2023-11-21T10:24:35;91573.88;;;10.42;62.45
34506;BME280;20748;42.632;23.198;2023-11-21T10:27:20;91568.88;;;10.55;62.27
34506;BME280;20748;42.632;23.198;2023-11-21T10:29:54;91554.91;;;10.59;63.02
34506;BME280;20748;42.632;23.198;2023-11-21T10:32:28;91559.34;;;10.59;62.85
34506;BME280;20748;42.632;23.198;2023-11-21T10:35:05;91557.19;;;10.70;62.51
34506;BME280;20748;42.632;23.198;2023-11-21T10:37:43;91554.75;;;10.73;62.54
34506;BME280;20748;42.632;23.198;2023-11-21T10:40:19;91556.56;;;10.73;62.31
34506;BME280;20748;42.632;23.198;2023-11-21T10:42:54;91544.44;;;10.77;61.35
34506;BME280;20748;42.632;23.198;2023-11-21T10:45:30;91556.28;;;10.74;60.85
34506;BME280;20748;42.632;23.198;2023-11-21T10:48:06;91549.22;;;10.57;60.16
34506;BME280;20748;42.632;23.198;2023-11-21T10:50:42;91532.50;;;10.58;60.93
34506;BME280;20748;42.632;23.198;2023-11-21T10:53:16;91532.97;;;10.52;60.32
34506;BME280;20748;42.632;23.198;2023-11-21T10:56:01;91524.84;;;10.44;61.64
34506;BME280;20748;42.632;23.198;2023-11-21T10:58:37;91545.84;;;10.57;61.75
34506;BME280;20748;42.632;23.198;2023-11-21T11:01:12;91537.09;;;10.61;62.07
34506;BME280;20748;42.632;23.198;2023-11-21T11:03:50;91535.28;;;10.44;61.26
34506;BME280;20748;42.632;23.198;2023-11-21T11:06:27;91539.38;;;10.37;62.03
34506;BME280;20748;42.632;23.198;2023-11-21T11:09:02;91542.44;;;10.03;61.29
34506;BME280;20748;42.632;23.198;2023-11-21T11:11:39;91524.03;;;10.00;61.50
34506;BME280;20748;42.632;23.198;2023-11-21T11:14:14;91521.13;;;10.01;63.67
34506;BME280;20748;42.632;23.198;2023-11-21T11:16:49;91517.28;;;9.99;64.26
34506;BME280;20748;42.632;23.198;2023-11-21T11:19:22;91510.72;;;10.10;64.87
34506;BME280;20748;42.632;23.198;2023-11-21T11:22:05;91502.75;;;10.06;64.07
34506;BME280;20748;42.632;23.198;2023-11-21T11:24:58;91499.97;;;10.20;64.76
34506;BME280;20748;42.632;23.198;2023-11-21T11:27:46;91503.66;;;10.11;63.24
34506;BME280;20748;42.632;23.198;2023-11-21T11:30:32;91492.00;;;10.26;65.05
34506;BME280;20748;42.632;23.198;2023-11-21T11:33:21;91496.75;;;10.24;65.26
34506;BME280;20748;42.632;23.198;2023-11-21T11:36:03;91490.31;;;9.94;66.67
34506;BME280;20748;42.632;23.198;2023-11-21T11:38:45;91521.00;;;10.15;67.61
34506;BME280;20748;42.632;23.198;2023-11-21T11:41:25;91523.13;;;10.13;67.30
34506;BME280;20748;42.632;23.198;2023-11-21T11:44:01;91524.34;;;10.07;67.15
34506;BME280;20748;42.632;23.198;2023-11-21T11:46:42;91514.38;;;9.91;66.64
34506;BME280;20748;42.632;23.198;2023-11-21T11:49:24;91507.63;;;9.82;67.13
34506;BME280;20748;42.632;23.198;2023-11-21T11:52:33;91497.66;;;9.75;68.68
34506;BME280;20748;42.632;23.198;2023-11-21T11:55:08;91498.09;;;9.77;70.13
34506;BME280;20748;42.632;23.198;2023-11-21T11:57:44;91495.78;;;9.58;71.55
34506;BME280;20748;42.632;23.198;2023-11-21T12:00:22;91503.13;;;9.56;74.35
34506;BME280;20748;42.632;23.198;2023-11-21T12:03:10;91492.56;;;9.70;75.96
34506;BME280;20748;42.632;23.198;2023-11-21T12:05:46;91497.63;;;9.66;79.05
34506;BME280;20748;42.632;23.198;2023-11-21T12:08:22;91497.56;;;9.39;79.62
34506;BME280;20748;42.632;23.198;2023-11-21T12:11:04;91514.47;;;9.51;79.04
34506;BME280;20748;42.632;23.198;2023-11-21T12:13:38;91504.47;;;9.44;80.14
34506;BME280;20748;42.632;23.198;2023-11-21T12:16:14;91503.06;;;9.38;81.21
34506;BME280;20748;42.632;23.198;2023-11-21T12:18:48;91486.56;;;9.43;81.03
34506;BME280;20748;42.632;23.198;2023-11-21T12:21:22;91472.84;;;9.19;80.87
34506;BME280;20748;42.632;23.198;2023-11-21T12:23:56;91470.69;;;9.12;81.75
34506;BME280;20748;42.632;23.198;2023-11-21T12:26:30;91496.72;;;9.12;81.33
34506;BME280;20748;42.632;23.198;2023-11-21T12:29:04;91496.56;;;9.18;82.34
34506;BME280;20748;42.632;23.198;2023-11-21T12:31:41;91493.88;;;8.91;82.51
34506;BME280;20748;42.632;23.198;2023-11-21T12:34:15;91494.22;;;8.98;82.56
34506;BME280;20748;42.632;23.198;2023-11-21T12:36:50;91489.75;;;8.90;85.44
34506;BME280;20748;42.632;23.198;2023-11-21T12:39:27;91477.94;;;8.84;83.54
34506;BME280;20748;42.632;23.198;2023-11-21T12:42:01;91477.88;;;8.75;85.14
34506;BME280;20748;42.632;23.198;2023-11-21T12:44:36;91469.59;;;8.41;88.67
34506;BME280;20748;42.632;23.198;2023-11-21T12:47:17;91470.00;;;8.35;90.31
34506;BME280;20748;42.632;23.198;2023-11-21T12:49:52;91453.94;;;8.32;89.58
34506;BME280;20748;42.632;23.198;2023-11-21T12:52:26;91470.78;;;8.35;90.68
34506;BME280;20748;42.632;23.198;2023-11-21T12:55:01;91459.47;;;8.40;89.24
34506;BME280;20748;42.632;23.198;2023-11-21T12:57:35;91450.63;;;8.18;90.64
34506;BME280;20748;42.632;23.198;2023-11-21T13:00:12;91450.44;;;8.14;90.50
34506;BME280;20748;42.632;23.198;2023-11-21T13:02:59;91443.66;;;8.04;92.29
34506;BME280;20748;42.632;23.198;2023-11-21T13:05:34;91443.19;;;8.02;90.96
34506;BME280;20748;42.632;23.198;2023-11-21T13:08:12;91440.81;;;7.92;91.11
34506;BME280;20748;42.632;23.198;2023-11-21T13:10:49;91440.81;;;7.69;93.90
34506;BME280;20748;42.632;23.198;2023-11-21T13:13:23;91441.59;;;7.70;94.78
34506;BME280;20748;42.632;23.198;2023-11-21T13:15:59;91445.31;;;7.41;94.89
34506;BME280;20748;42.632;23.198;2023-11-21T13:18:38;91443.78;;;7.25;90.39
34506;BME280;20748;42.632;23.198;2023-11-21T13:21:14;91449.31;;;7.47;93.93
34506;BME280;20748;42.632;23.198;2023-11-21T13:23:49;91445.09;;;7.51;92.37
34506;BME280;20748;42.632;23.198;2023-11-21T13:26:25;91447.25;;;7.72;85.36
34506;BME280;20748;42.632;23.198;2023-11-21T13:28:59;91439.75;;;7.93;83.26
34506;BME280;20748;42.632;23.198;2023-11-21T13:31:33;91435.75;;;8.10;81.83
34506;BME280;20748;42.632;23.198;2023-11-21T13:34:11;91434.97;;;8.32;79.42